sensor_id;sensor_type;location;lat;lon;timestamp;P1;durP1;ratioP1;P2;durP2;ratioP2
64132;SDS011;53116;52.020;4.446;2022-08-19T00:02:01;8.60;;;5.50;;
64132;SDS011;53116;52.020;4.446;2022-08-19T00:04:29;6.85;;;5.70;;
64132;SDS011;53116;52.020;4.446;2022-08-19T00:06:56;7.45;;;5.35;;
64132;SDS011;53116;52.020;4.446;2022-08-19T00:09:23;7.10;;;5.70;;
64132;SDS011;53116;52.020;4.446;2022-08-19T00:11:49;9.77;;;5.82;;
64132;SDS011;53116;52.020;4.446;2022-08-19T00:14:15;6.88;;;5.53;;
64132;SDS011;53116;52.020;4.446;2022-08-19T00:16:43;10.23;;;5.82;;
64132;SDS011;53116;52.020;4.446;2022-08-19T00:19:09;8.07;;;6.30;;
64132;SDS011;53116;52.020;4.446;2022-08-19T00:21:35;8.82;;;6.13;;
64132;SDS011;53116;52.020;4.446;2022-08-19T00:24:05;8.40;;;6.05;;
64132;SDS011;53116;52.020;4.446;2022-08-19T00:26:32;11.00;;;6.50;;
64132;SDS011;53116;52.020;4.446;2022-08-19T00:28:58;10.15;;;6.30;;
64132;SDS011;53116;52.020;4.446;2022-08-19T00:31:24;8.70;;;5.68;;
64132;SDS011;53116;52.020;4.446;2022-08-19T00:33:50;9.00;;;6.35;;
64132;SDS011;53116;52.020;4.446;2022-08-19T00:36:15;8.70;;;6.50;;
64132;SDS011;53116;52.020;4.446;2022-08-19T00:38:41;10.18;;;6.63;;
64132;SDS011;53116;52.020;4.446;2022-08-19T00:41:09;8.65;;;6.90;;
64132;SDS011;53116;52.020;4.446;2022-08-19T00:43:38;8.30;;;6.45;;
64132;SDS011;53116;52.020;4.446;2022-08-19T00:46:03;8.45;;;6.80;;
64132;SDS011;53116;52.020;4.446;2022-08-19T00:48:29;10.07;;;6.25;;
64132;SDS011;53116;52.020;4.446;2022-08-19T00:50:56;8.68;;;6.40;;
64132;SDS011;53116;52.020;4.446;2022-08-19T00:53:23;9.20;;;6.20;;
64132;SDS011;53116;52.020;4.446;2022-08-19T00:55:52;9.57;;;6.88;;
64132;SDS011;53116;52.020;4.446;2022-08-19T00:58:20;10.82;;;7.47;;
64132;SDS011;53116;52.020;4.446;2022-08-19T01:00:49;10.77;;;6.97;;
64132;SDS011;53116;52.020;4.446;2022-08-19T01:03:16;10.03;;;7.27;;
64132;SDS011;53116;52.020;4.446;2022-08-19T01:05:43;11.00;;;6.80;;
64132;SDS011;53116;52.020;4.446;2022-08-19T01:08:09;10.27;;;7.28;;
64132;SDS011;53116;52.020;4.446;2022-08-19T01:10:39;9.63;;;6.90;;
64132;SDS011;53116;52.020;4.446;2022-08-19T01:13:08;11.88;;;7.43;;
64132;SDS011;53116;52.020;4.446;2022-08-19T01:15:35;9.00;;;7.13;;
64132;SDS011;53116;52.020;4.446;2022-08-19T01:18:08;9.43;;;7.38;;
64132;SDS011;53116;52.020;4.446;2022-08-19T01:20:37;10.77;;;6.50;;
64132;SDS011;53116;52.020;4.446;2022-08-19T01:23:04;11.23;;;7.60;;
64132;SDS011;53116;52.020;4.446;2022-08-19T01:25:31;9.37;;;7.00;;
64132;SDS011;53116;52.020;4.446;2022-08-19T01:28:00;12.00;;;7.35;;
64132;SDS011;53116;52.020;4.446;2022-08-19T01:30:30;11.20;;;7.93;;
64132;SDS011;53116;52.020;4.446;2022-08-19T01:32:58;10.98;;;7.50;;
64132;SDS011;53116;52.020;4.446;2022-08-19T01:35:25;10.40;;;7.60;;
64132;SDS011;53116;52.020;4.446;2022-08-19T01:37:54;8.98;;;6.93;;
64132;SDS011;53116;52.020;4.446;2022-08-19T01:40:26;12.07;;;7.63;;
64132;SDS011;53116;52.020;4.446;2022-08-19T01:42:54;10.98;;;7.10;;
64132;SDS011;53116;52.020;4.446;2022-08-19T01:45:21;8.45;;;6.80;;
64132;SDS011;53116;52.020;4.446;2022-08-19T01:47:47;11.30;;;7.07;;
64132;SDS011;53116;52.020;4.446;2022-08-19T01:50:13;10.95;;;7.63;;
64132;SDS011;53116;52.020;4.446;2022-08-19T01:52:39;11.90;;;7.78;;
64132;SDS011;53116;52.020;4.446;2022-08-19T01:55:07;9.52;;;7.45;;
64132;SDS011;53116;52.020;4.446;2022-08-19T01:57:36;11.88;;;7.70;;
64132;SDS011;53116;52.020;4.446;2022-08-19T02:00:05;12.98;;;9.90;;
64132;SDS011;53116;52.020;4.446;2022-08-19T02:02:34;12.77;;;9.82;;
64132;SDS011;53116;52.020;4.446;2022-08-19T02:04:59;14.35;;;11.00;;
64132;SDS011;53116;52.020;4.446;2022-08-19T02:07:24;13.17;;;11.10;;
64132;SDS011;53116;52.020;4.446;2022-08-19T02:09:50;14.23;;;12.07;;
64132;SDS011;53116;52.020;4.446;2022-08-19T02:12:15;15.67;;;12.87;;
64132;SDS011;53116;52.020;4.446;2022-08-19T02:14:41;19.10;;;13.57;;
64132;SDS011;53116;52.020;4.446;2022-08-19T02:17:07;15.32;;;13.02;;
64132;SDS011;53116;52.020;4.446;2022-08-19T02:19:32;15.07;;;13.27;;
64132;SDS011;53116;52.020;4.446;2022-08-19T02:21:58;16.13;;;12.95;;
64132;SDS011;53116;52.020;4.446;2022-08-19T02:24:24;18.25;;;12.85;;
64132;SDS011;53116;52.020;4.446;2022-08-19T02:26:50;19.65;;;13.48;;
64132;SDS011;53116;52.020;4.446;2022-08-19T02:29:16;19.25;;;14.07;;
64132;SDS011;53116;52.020;4.446;2022-08-19T02:31:41;16.93;;;13.80;;
64132;SDS011;53116;52.020;4.446;2022-08-19T02:34:06;16.30;;;13.83;;
64132;SDS011;53116;52.020;4.446;2022-08-19T02:36:31;18.67;;;14.43;;
64132;SDS011;53116;52.020;4.446;2022-08-19T02:38:57;17.08;;;14.40;;
64132;SDS011;53116;52.020;4.446;2022-08-19T02:41:24;18.08;;;14.98;;
64132;SDS011;53116;52.020;4.446;2022-08-19T02:43:51;23.15;;;16.80;;
64132;SDS011;53116;52.020;4.446;2022-08-19T02:46:18;19.80;;;16.57;;
64132;SDS011;53116;52.020;4.446;2022-08-19T02:48:46;21.90;;;16.88;;
64132;SDS011;53116;52.020;4.446;2022-08-19T02:51:23;22.30;;;17.58;;
64132;SDS011;53116;52.020;4.446;2022-08-19T02:53:51;23.08;;;18.33;;
64132;SDS011;53116;52.020;4.446;2022-08-19T02:56:17;21.17;;;17.92;;
64132;SDS011;53116;52.020;4.446;2022-08-19T02:58:43;23.98;;;17.17;;
64132;SDS011;53116;52.020;4.446;2022-08-19T03:01:09;22.67;;;18.33;;
64132;SDS011;53116;52.020;4.446;2022-08-19T03:03:36;25.88;;;19.23;;
64132;SDS011;53116;52.020;4.446;2022-08-19T03:06:12;22.77;;;18.05;;
64132;SDS011;53116;52.020;4.446;2022-08-19T03:08:40;24.83;;;19.13;;
64132;SDS011;53116;52.020;4.446;2022-08-19T03:11:12;24.90;;;19.13;;
64132;SDS011;53116;52.020;4.446;2022-08-19T03:13:42;22.95;;;18.88;;
64132;SDS011;53116;52.020;4.446;2022-08-19T03:16:08;26.92;;;19.63;;
64132;SDS011;53116;52.020;4.446;2022-08-19T03:18:33;23.70;;;19.35;;
64132;SDS011;53116;52.020;4.446;2022-08-19T03:20:59;26.23;;;20.05;;
64132;SDS011;53116;52.020;4.446;2022-08-19T03:23:24;28.02;;;20.77;;
64132;SDS011;53116;52.020;4.446;2022-08-19T03:25:50;27.63;;;20.23;;
64132;SDS011;53116;52.020;4.446;2022-08-19T03:28:17;26.70;;;20.75;;
64132;SDS011;53116;52.020;4.446;2022-08-19T03:30:53;25.77;;;19.60;;
64132;SDS011;53116;52.020;4.446;2022-08-19T03:33:24;27.58;;;20.23;;
64132;SDS011;53116;52.020;4.446;2022-08-19T03:36:04;25.23;;;18.88;;
64132;SDS011;53116;52.020;4.446;2022-08-19T03:38:44;25.10;;;19.67;;
64132;SDS011;53116;52.020;4.446;2022-08-19T03:41:22;26.33;;;20.50;;
64132;SDS011;53116;52.020;4.446;2022-08-19T03:43:50;28.90;;;20.17;;
64132;SDS011;53116;52.020;4.446;2022-08-19T03:46:18;26.70;;;20.20;;
64132;SDS011;53116;52.020;4.446;2022-08-19T03:48:50;29.90;;;20.67;;
64132;SDS011;53116;52.020;4.446;2022-08-19T03:53:50;28.52;;;20.60;;
64132;SDS011;53116;52.020;4.446;2022-08-19T03:56:17;27.42;;;19.08;;
64132;SDS011;53116;52.020;4.446;2022-08-19T03:58:42;28.42;;;21.02;;
64132;SDS011;53116;52.020;4.446;2022-08-19T04:01:09;29.13;;;20.08;;
64132;SDS011;53116;52.020;4.446;2022-08-19T04:03:36;30.33;;;21.85;;
64132;SDS011;53116;52.020;4.446;2022-08-19T04:06:09;30.80;;;22.38;;
64132;SDS011;53116;52.020;4.446;2022-08-19T04:08:35;31.00;;;22.80;;
64132;SDS011;53116;52.020;4.446;2022-08-19T04:11:00;32.17;;;22.23;;
64132;SDS011;53116;52.020;4.446;2022-08-19T04:13:25;33.30;;;24.00;;
64132;SDS011;53116;52.020;4.446;2022-08-19T04:15:51;35.60;;;24.42;;
64132;SDS011;53116;52.020;4.446;2022-08-19T04:18:16;33.37;;;24.63;;
64132;SDS011;53116;52.020;4.446;2022-08-19T04:20:46;36.47;;;25.48;;
64132;SDS011;53116;52.020;4.446;2022-08-19T04:23:12;32.80;;;25.20;;
64132;SDS011;53116;52.020;4.446;2022-08-19T04:25:40;36.42;;;26.50;;
64132;SDS011;53116;52.020;4.446;2022-08-19T04:28:07;40.33;;;27.85;;
64132;SDS011;53116;52.020;4.446;2022-08-19T04:30:41;42.08;;;26.58;;
64132;SDS011;53116;52.020;4.446;2022-08-19T04:33:08;38.28;;;28.35;;
64132;SDS011;53116;52.020;4.446;2022-08-19T04:35:38;43.88;;;27.27;;
64132;SDS011;53116;52.020;4.446;2022-08-19T04:38:05;38.08;;;27.33;;
64132;SDS011;53116;52.020;4.446;2022-08-19T04:40:31;45.95;;;29.17;;
64132;SDS011;53116;52.020;4.446;2022-08-19T04:43:15;41.40;;;27.88;;
64132;SDS011;53116;52.020;4.446;2022-08-19T04:45:42;43.20;;;27.58;;
64132;SDS011;53116;52.020;4.446;2022-08-19T04:48:11;42.85;;;27.90;;
64132;SDS011;53116;52.020;4.446;2022-08-19T04:50:39;38.25;;;27.30;;
64132;SDS011;53116;52.020;4.446;2022-08-19T04:53:06;40.15;;;27.90;;
64132;SDS011;53116;52.020;4.446;2022-08-19T04:55:32;40.72;;;27.70;;
64132;SDS011;53116;52.020;4.446;2022-08-19T04:57:57;38.45;;;26.25;;
64132;SDS011;53116;52.020;4.446;2022-08-19T05:00:23;41.83;;;26.38;;
64132;SDS011;53116;52.020;4.446;2022-08-19T05:02:48;38.88;;;26.08;;
64132;SDS011;53116;52.020;4.446;2022-08-19T05:05:14;39.28;;;24.55;;
64132;SDS011;53116;52.020;4.446;2022-08-19T05:07:39;37.05;;;25.50;;
64132;SDS011;53116;52.020;4.446;2022-08-19T05:10:06;38.55;;;25.90;;
64132;SDS011;53116;52.020;4.446;2022-08-19T05:12:32;43.83;;;25.58;;
64132;SDS011;53116;52.020;4.446;2022-08-19T05:14:58;36.50;;;25.23;;
64132;SDS011;53116;52.020;4.446;2022-08-19T05:17:24;39.00;;;24.88;;
64132;SDS011;53116;52.020;4.446;2022-08-19T05:19:51;37.95;;;24.30;;
64132;SDS011;53116;52.020;4.446;2022-08-19T05:22:35;36.75;;;22.40;;
64132;SDS011;53116;52.020;4.446;2022-08-19T05:25:01;36.75;;;22.58;;
64132;SDS011;53116;52.020;4.446;2022-08-19T05:27:30;37.67;;;23.73;;
64132;SDS011;53116;52.020;4.446;2022-08-19T05:29:56;37.40;;;22.85;;
64132;SDS011;53116;52.020;4.446;2022-08-19T05:32:21;33.63;;;22.70;;
64132;SDS011;53116;52.020;4.446;2022-08-19T05:34:48;34.30;;;22.15;;
64132;SDS011;53116;52.020;4.446;2022-08-19T05:37:14;36.00;;;22.27;;
64132;SDS011;53116;52.020;4.446;2022-08-19T05:39:39;30.08;;;21.15;;
64132;SDS011;53116;52.020;4.446;2022-08-19T05:42:07;30.63;;;21.13;;
64132;SDS011;53116;52.020;4.446;2022-08-19T05:44:35;34.00;;;21.98;;
64132;SDS011;53116;52.020;4.446;2022-08-19T05:47:03;34.58;;;22.58;;
64132;SDS011;53116;52.020;4.446;2022-08-19T05:49:30;32.38;;;22.10;;
64132;SDS011;53116;52.020;4.446;2022-08-19T05:51:57;31.08;;;21.33;;
64132;SDS011;53116;52.020;4.446;2022-08-19T05:54:23;32.00;;;22.17;;
64132;SDS011;53116;52.020;4.446;2022-08-19T05:56:50;33.65;;;22.10;;
64132;SDS011;53116;52.020;4.446;2022-08-19T05:59:17;30.58;;;20.98;;
64132;SDS011;53116;52.020;4.446;2022-08-19T06:01:45;34.40;;;20.60;;
64132;SDS011;53116;52.020;4.446;2022-08-19T06:04:15;32.50;;;20.50;;
64132;SDS011;53116;52.020;4.446;2022-08-19T06:06:43;29.20;;;18.40;;
64132;SDS011;53116;52.020;4.446;2022-08-19T06:09:09;24.88;;;17.17;;
64132;SDS011;53116;52.020;4.446;2022-08-19T06:14:06;21.10;;;15.32;;
64132;SDS011;53116;52.020;4.446;2022-08-19T06:16:36;19.77;;;15.40;;
64132;SDS011;53116;52.020;4.446;2022-08-19T06:19:05;22.27;;;15.02;;
64132;SDS011;53116;52.020;4.446;2022-08-19T06:21:32;20.75;;;14.50;;
64132;SDS011;53116;52.020;4.446;2022-08-19T06:23:58;20.45;;;14.57;;
64132;SDS011;53116;52.020;4.446;2022-08-19T06:26:25;18.92;;;13.95;;
64132;SDS011;53116;52.020;4.446;2022-08-19T06:28:51;19.05;;;12.93;;
64132;SDS011;53116;52.020;4.446;2022-08-19T06:31:19;22.00;;;13.27;;
64132;SDS011;53116;52.020;4.446;2022-08-19T06:33:48;23.38;;;15.38;;
64132;SDS011;53116;52.020;4.446;2022-08-19T06:36:19;30.33;;;18.58;;
64132;SDS011;53116;52.020;4.446;2022-08-19T06:38:44;28.73;;;19.13;;
64132;SDS011;53116;52.020;4.446;2022-08-19T06:41:09;32.28;;;19.13;;
64132;SDS011;53116;52.020;4.446;2022-08-19T06:43:35;31.00;;;19.48;;
64132;SDS011;53116;52.020;4.446;2022-08-19T06:46:01;32.25;;;20.38;;
64132;SDS011;53116;52.020;4.446;2022-08-19T06:48:28;30.65;;;19.25;;
64132;SDS011;53116;52.020;4.446;2022-08-19T06:50:53;28.33;;;17.92;;
64132;SDS011;53116;52.020;4.446;2022-08-19T06:53:19;28.48;;;18.83;;
64132;SDS011;53116;52.020;4.446;2022-08-19T06:55:44;30.70;;;17.83;;
64132;SDS011;53116;52.020;4.446;2022-08-19T06:58:10;30.77;;;17.70;;
64132;SDS011;53116;52.020;4.446;2022-08-19T07:00:36;25.52;;;16.95;;
64132;SDS011;53116;52.020;4.446;2022-08-19T07:03:01;29.70;;;17.00;;
64132;SDS011;53116;52.020;4.446;2022-08-19T07:05:27;25.73;;;16.42;;
64132;SDS011;53116;52.020;4.446;2022-08-19T07:07:53;30.88;;;16.52;;
64132;SDS011;53116;52.020;4.446;2022-08-19T07:10:18;24.00;;;15.10;;
64132;SDS011;53116;52.020;4.446;2022-08-19T07:12:44;23.83;;;15.60;;
64132;SDS011;53116;52.020;4.446;2022-08-19T07:15:09;27.08;;;14.95;;
64132;SDS011;53116;52.020;4.446;2022-08-19T07:17:36;22.90;;;14.40;;
64132;SDS011;53116;52.020;4.446;2022-08-19T07:20:04;38.05;;;15.70;;
64132;SDS011;53116;52.020;4.446;2022-08-19T07:22:32;21.55;;;14.80;;
64132;SDS011;53116;52.020;4.446;2022-08-19T07:24:58;21.20;;;13.50;;
64132;SDS011;53116;52.020;4.446;2022-08-19T07:27:24;25.52;;;13.98;;
64132;SDS011;53116;52.020;4.446;2022-08-19T07:29:49;27.63;;;14.02;;
64132;SDS011;53116;52.020;4.446;2022-08-19T07:32:15;24.45;;;14.48;;
64132;SDS011;53116;52.020;4.446;2022-08-19T07:34:41;21.38;;;13.75;;
64132;SDS011;53116;52.020;4.446;2022-08-19T07:37:06;22.83;;;13.80;;
64132;SDS011;53116;52.020;4.446;2022-08-19T07:39:33;20.08;;;13.02;;
64132;SDS011;53116;52.020;4.446;2022-08-19T07:42:01;21.40;;;13.50;;
64132;SDS011;53116;52.020;4.446;2022-08-19T07:44:28;18.08;;;12.25;;
64132;SDS011;53116;52.020;4.446;2022-08-19T07:46:55;19.80;;;13.33;;
64132;SDS011;53116;52.020;4.446;2022-08-19T07:49:21;21.65;;;13.32;;
64132;SDS011;53116;52.020;4.446;2022-08-19T07:51:52;22.48;;;13.60;;
64132;SDS011;53116;52.020;4.446;2022-08-19T07:54:28;18.35;;;13.43;;
64132;SDS011;53116;52.020;4.446;2022-08-19T07:56:56;20.77;;;12.43;;
64132;SDS011;53116;52.020;4.446;2022-08-19T07:59:22;17.60;;;12.15;;
64132;SDS011;53116;52.020;4.446;2022-08-19T08:01:48;16.58;;;11.13;;
64132;SDS011;53116;52.020;4.446;2022-08-19T08:04:15;20.20;;;12.27;;
64132;SDS011;53116;52.020;4.446;2022-08-19T08:06:59;16.70;;;11.80;;
64132;SDS011;53116;52.020;4.446;2022-08-19T08:09:44;18.90;;;11.27;;
64132;SDS011;53116;52.020;4.446;2022-08-19T08:12:11;15.23;;;10.40;;
64132;SDS011;53116;52.020;4.446;2022-08-19T08:14:44;20.42;;;10.70;;
64132;SDS011;53116;52.020;4.446;2022-08-19T08:17:12;16.45;;;9.68;;
64132;SDS011;53116;52.020;4.446;2022-08-19T08:19:39;16.75;;;10.05;;
64132;SDS011;53116;52.020;4.446;2022-08-19T08:22:06;18.67;;;10.20;;
64132;SDS011;53116;52.020;4.446;2022-08-19T08:24:32;15.07;;;9.43;;
64132;SDS011;53116;52.020;4.446;2022-08-19T08:27:00;14.02;;;8.77;;
64132;SDS011;53116;52.020;4.446;2022-08-19T08:29:26;17.35;;;9.45;;
64132;SDS011;53116;52.020;4.446;2022-08-19T08:31:52;19.58;;;9.70;;
64132;SDS011;53116;52.020;4.446;2022-08-19T08:34:18;17.70;;;8.95;;
64132;SDS011;53116;52.020;4.446;2022-08-19T08:36:45;16.58;;;7.97;;
64132;SDS011;53116;52.020;4.446;2022-08-19T08:39:11;14.35;;;8.23;;
64132;SDS011;53116;52.020;4.446;2022-08-19T08:41:42;17.40;;;8.40;;
64132;SDS011;53116;52.020;4.446;2022-08-19T08:44:17;13.93;;;7.13;;
64132;SDS011;53116;52.020;4.446;2022-08-19T08:47:04;16.92;;;7.68;;
64132;SDS011;53116;52.020;4.446;2022-08-19T08:52:24;11.57;;;7.00;;
64132;SDS011;53116;52.020;4.446;2022-08-19T08:54:55;13.32;;;6.88;;
64132;SDS011;53116;52.020;4.446;2022-08-19T08:58:06;12.88;;;6.82;;
64132;SDS011;53116;52.020;4.446;2022-08-19T09:00:15;11.70;;;6.68;;
64132;SDS011;53116;52.020;4.446;2022-08-19T09:02:46;12.10;;;6.78;;
64132;SDS011;53116;52.020;4.446;2022-08-19T09:05:12;14.48;;;6.50;;
64132;SDS011;53116;52.020;4.446;2022-08-19T09:10:58;11.02;;;6.20;;
64132;SDS011;53116;52.020;4.446;2022-08-19T09:13:30;10.80;;;5.82;;
64132;SDS011;53116;52.020;4.446;2022-08-19T09:16:15;12.98;;;5.97;;
64132;SDS011;53116;52.020;4.446;2022-08-19T09:18:48;13.40;;;6.00;;
64132;SDS011;53116;52.020;4.446;2022-08-19T09:21:20;14.13;;;6.20;;
64132;SDS011;53116;52.020;4.446;2022-08-19T09:23:47;11.07;;;5.93;;
64132;SDS011;53116;52.020;4.446;2022-08-19T09:26:14;12.32;;;6.03;;
64132;SDS011;53116;52.020;4.446;2022-08-19T09:28:46;13.68;;;6.10;;
64132;SDS011;53116;52.020;4.446;2022-08-19T09:31:14;10.77;;;5.45;;
64132;SDS011;53116;52.020;4.446;2022-08-19T09:33:43;14.15;;;6.00;;
64132;SDS011;53116;52.020;4.446;2022-08-19T09:36:10;12.27;;;5.15;;
64132;SDS011;53116;52.020;4.446;2022-08-19T09:38:38;10.63;;;5.10;;
64132;SDS011;53116;52.020;4.446;2022-08-19T09:41:06;10.10;;;4.40;;
64132;SDS011;53116;52.020;4.446;2022-08-19T09:43:36;12.63;;;4.75;;
64132;SDS011;53116;52.020;4.446;2022-08-19T09:46:03;9.23;;;3.90;;
64132;SDS011;53116;52.020;4.446;2022-08-19T09:48:31;8.45;;;3.95;;
64132;SDS011;53116;52.020;4.446;2022-08-19T09:51:04;9.13;;;3.80;;
64132;SDS011;53116;52.020;4.446;2022-08-19T09:53:30;7.82;;;3.60;;
64132;SDS011;53116;52.020;4.446;2022-08-19T09:55:56;7.93;;;3.67;;
64132;SDS011;53116;52.020;4.446;2022-08-19T09:58:21;6.77;;;3.50;;
64132;SDS011;53116;52.020;4.446;2022-08-19T10:00:51;8.02;;;3.70;;
64132;SDS011;53116;52.020;4.446;2022-08-19T10:03:17;7.95;;;3.88;;
64132;SDS011;53116;52.020;4.446;2022-08-19T10:05:42;9.10;;;3.80;;
64132;SDS011;53116;52.020;4.446;2022-08-19T10:08:13;7.72;;;4.07;;
64132;SDS011;53116;52.020;4.446;2022-08-19T10:10:43;9.95;;;4.20;;
64132;SDS011;53116;52.020;4.446;2022-08-19T10:13:09;7.90;;;4.15;;
64132;SDS011;53116;52.020;4.446;2022-08-19T10:15:35;9.18;;;4.15;;
64132;SDS011;53116;52.020;4.446;2022-08-19T10:18:00;8.52;;;3.97;;
64132;SDS011;53116;52.020;4.446;2022-08-19T10:20:26;8.90;;;4.35;;
64132;SDS011;53116;52.020;4.446;2022-08-19T10:22:51;7.93;;;4.18;;
64132;SDS011;53116;52.020;4.446;2022-08-19T10:25:16;8.90;;;3.63;;
64132;SDS011;53116;52.020;4.446;2022-08-19T10:27:42;6.72;;;3.53;;
64132;SDS011;53116;52.020;4.446;2022-08-19T10:30:08;8.75;;;4.00;;
64132;SDS011;53116;52.020;4.446;2022-08-19T10:32:34;6.30;;;3.70;;
64132;SDS011;53116;52.020;4.446;2022-08-19T10:35:00;6.75;;;3.45;;
64132;SDS011;53116;52.020;4.446;2022-08-19T10:37:26;6.88;;;3.63;;
64132;SDS011;53116;52.020;4.446;2022-08-19T10:39:51;3.63;;;2.90;;
64132;SDS011;53116;52.020;4.446;2022-08-19T10:42:16;7.47;;;3.13;;
64132;SDS011;53116;52.020;4.446;2022-08-19T10:44:43;5.18;;;3.00;;
64132;SDS011;53116;52.020;4.446;2022-08-19T10:47:10;9.13;;;3.47;;
64132;SDS011;53116;52.020;4.446;2022-08-19T10:49:35;6.32;;;3.30;;
64132;SDS011;53116;52.020;4.446;2022-08-19T10:52:21;4.82;;;2.80;;
64132;SDS011;53116;52.020;4.446;2022-08-19T10:54:58;5.40;;;2.83;;
64132;SDS011;53116;52.020;4.446;2022-08-19T10:57:46;5.38;;;2.70;;
64132;SDS011;53116;52.020;4.446;2022-08-19T11:00:12;5.23;;;2.60;;
64132;SDS011;53116;52.020;4.446;2022-08-19T11:02:38;6.18;;;2.47;;
64132;SDS011;53116;52.020;4.446;2022-08-19T11:05:04;5.53;;;2.33;;
64132;SDS011;53116;52.020;4.446;2022-08-19T11:07:31;4.57;;;2.30;;
64132;SDS011;53116;52.020;4.446;2022-08-19T11:09:57;6.57;;;2.30;;
64132;SDS011;53116;52.020;4.446;2022-08-19T11:12:22;6.95;;;2.13;;
64132;SDS011;53116;52.020;4.446;2022-08-19T11:14:49;3.55;;;2.20;;
64132;SDS011;53116;52.020;4.446;2022-08-19T11:17:15;4.30;;;2.08;;
64132;SDS011;53116;52.020;4.446;2022-08-19T11:19:40;6.47;;;2.47;;
64132;SDS011;53116;52.020;4.446;2022-08-19T11:22:07;6.18;;;2.15;;
64132;SDS011;53116;52.020;4.446;2022-08-19T11:24:35;4.40;;;2.20;;
64132;SDS011;53116;52.020;4.446;2022-08-19T11:27:03;6.78;;;2.10;;
64132;SDS011;53116;52.020;4.446;2022-08-19T11:29:31;4.93;;;2.58;;
64132;SDS011;53116;52.020;4.446;2022-08-19T11:31:57;4.10;;;1.88;;
64132;SDS011;53116;52.020;4.446;2022-08-19T11:34:24;3.58;;;1.80;;
64132;SDS011;53116;52.020;4.446;2022-08-19T11:36:52;4.53;;;2.10;;
64132;SDS011;53116;52.020;4.446;2022-08-19T11:39:20;5.22;;;1.90;;
64132;SDS011;53116;52.020;4.446;2022-08-19T11:41:46;4.50;;;1.80;;
64132;SDS011;53116;52.020;4.446;2022-08-19T11:44:13;5.13;;;2.10;;
64132;SDS011;53116;52.020;4.446;2022-08-19T11:46:39;5.78;;;2.00;;
64132;SDS011;53116;52.020;4.446;2022-08-19T11:49:06;4.55;;;2.22;;
64132;SDS011;53116;52.020;4.446;2022-08-19T11:51:32;4.43;;;2.17;;
64132;SDS011;53116;52.020;4.446;2022-08-19T11:53:58;4.30;;;2.03;;
64132;SDS011;53116;52.020;4.446;2022-08-19T11:56:25;6.63;;;1.98;;
64132;SDS011;53116;52.020;4.446;2022-08-19T11:58:51;4.72;;;2.40;;
64132;SDS011;53116;52.020;4.446;2022-08-19T12:01:18;4.78;;;2.10;;
64132;SDS011;53116;52.020;4.446;2022-08-19T12:03:46;4.63;;;2.33;;
64132;SDS011;53116;52.020;4.446;2022-08-19T12:06:14;4.60;;;2.00;;
64132;SDS011;53116;52.020;4.446;2022-08-19T12:08:45;5.28;;;2.05;;
64132;SDS011;53116;52.020;4.446;2022-08-19T12:11:12;4.45;;;2.00;;
64132;SDS011;53116;52.020;4.446;2022-08-19T12:13:38;3.72;;;2.00;;
64132;SDS011;53116;52.020;4.446;2022-08-19T12:16:09;4.05;;;2.28;;
64132;SDS011;53116;52.020;4.446;2022-08-19T12:18:37;3.90;;;2.25;;
64132;SDS011;53116;52.020;4.446;2022-08-19T12:21:02;4.88;;;2.28;;
64132;SDS011;53116;52.020;4.446;2022-08-19T12:23:28;3.38;;;2.28;;
64132;SDS011;53116;52.020;4.446;2022-08-19T12:25:53;4.32;;;2.60;;
64132;SDS011;53116;52.020;4.446;2022-08-19T12:28:20;3.42;;;2.13;;
64132;SDS011;53116;52.020;4.446;2022-08-19T12:30:47;3.67;;;2.10;;
64132;SDS011;53116;52.020;4.446;2022-08-19T12:33:13;6.00;;;2.42;;
64132;SDS011;53116;52.020;4.446;2022-08-19T12:35:40;4.75;;;2.30;;
64132;SDS011;53116;52.020;4.446;2022-08-19T12:38:07;3.25;;;1.98;;
64132;SDS011;53116;52.020;4.446;2022-08-19T12:40:32;4.10;;;2.25;;
64132;SDS011;53116;52.020;4.446;2022-08-19T12:42:58;6.97;;;2.73;;
64132;SDS011;53116;52.020;4.446;2022-08-19T12:45:24;6.00;;;2.55;;
64132;SDS011;53116;52.020;4.446;2022-08-19T12:47:49;7.93;;;2.50;;
64132;SDS011;53116;52.020;4.446;2022-08-19T12:50:15;3.22;;;2.17;;
64132;SDS011;53116;52.020;4.446;2022-08-19T12:52:40;6.03;;;2.47;;
64132;SDS011;53116;52.020;4.446;2022-08-19T12:55:07;4.97;;;2.33;;
64132;SDS011;53116;52.020;4.446;2022-08-19T13:00:55;4.45;;;2.42;;
64132;SDS011;53116;52.020;4.446;2022-08-19T13:03:20;5.65;;;2.63;;
64132;SDS011;53116;52.020;4.446;2022-08-19T13:05:50;4.30;;;2.55;;
64132;SDS011;53116;52.020;4.446;2022-08-19T13:08:16;6.65;;;2.83;;
64132;SDS011;53116;52.020;4.446;2022-08-19T13:10:42;4.00;;;2.10;;
64132;SDS011;53116;52.020;4.446;2022-08-19T13:13:07;4.55;;;2.42;;
64132;SDS011;53116;52.020;4.446;2022-08-19T13:15:35;5.00;;;2.53;;
64132;SDS011;53116;52.020;4.446;2022-08-19T13:18:02;5.22;;;2.50;;
64132;SDS011;53116;52.020;4.446;2022-08-19T13:20:28;5.30;;;2.30;;
64132;SDS011;53116;52.020;4.446;2022-08-19T13:22:54;4.80;;;2.40;;
64132;SDS011;53116;52.020;4.446;2022-08-19T13:25:20;6.50;;;2.67;;
64132;SDS011;53116;52.020;4.446;2022-08-19T13:27:46;3.45;;;2.30;;
64132;SDS011;53116;52.020;4.446;2022-08-19T13:30:13;3.97;;;2.33;;
64132;SDS011;53116;52.020;4.446;2022-08-19T13:32:59;4.20;;;2.25;;
64132;SDS011;53116;52.020;4.446;2022-08-19T13:35:43;2.95;;;2.10;;
64132;SDS011;53116;52.020;4.446;2022-08-19T13:38:08;4.70;;;2.40;;
64132;SDS011;53116;52.020;4.446;2022-08-19T13:40:35;3.28;;;2.35;;
64132;SDS011;53116;52.020;4.446;2022-08-19T13:43:01;4.07;;;2.03;;
64132;SDS011;53116;52.020;4.446;2022-08-19T13:45:29;4.35;;;2.50;;
64132;SDS011;53116;52.020;4.446;2022-08-19T13:47:59;2.92;;;1.88;;
64132;SDS011;53116;52.020;4.446;2022-08-19T13:50:29;3.40;;;2.00;;
64132;SDS011;53116;52.020;4.446;2022-08-19T13:52:56;3.40;;;2.22;;
64132;SDS011;53116;52.020;4.446;2022-08-19T13:55:22;4.95;;;2.00;;
64132;SDS011;53116;52.020;4.446;2022-08-19T13:57:52;4.25;;;2.22;;
64132;SDS011;53116;52.020;4.446;2022-08-19T14:00:20;2.38;;;1.80;;
64132;SDS011;53116;52.020;4.446;2022-08-19T14:02:46;4.65;;;2.03;;
64132;SDS011;53116;52.020;4.446;2022-08-19T14:05:13;2.90;;;1.90;;
64132;SDS011;53116;52.020;4.446;2022-08-19T14:07:40;3.80;;;2.05;;
64132;SDS011;53116;52.020;4.446;2022-08-19T14:10:07;2.85;;;1.92;;
64132;SDS011;53116;52.020;4.446;2022-08-19T14:12:34;3.58;;;1.95;;
64132;SDS011;53116;52.020;4.446;2022-08-19T14:15:00;4.85;;;1.92;;
64132;SDS011;53116;52.020;4.446;2022-08-19T14:17:27;2.67;;;2.10;;
64132;SDS011;53116;52.020;4.446;2022-08-19T14:19:58;4.60;;;1.90;;
64132;SDS011;53116;52.020;4.446;2022-08-19T14:22:25;4.78;;;2.35;;
64132;SDS011;53116;52.020;4.446;2022-08-19T14:24:51;2.88;;;1.90;;
64132;SDS011;53116;52.020;4.446;2022-08-19T14:27:16;2.97;;;2.00;;
64132;SDS011;53116;52.020;4.446;2022-08-19T14:29:41;3.70;;;1.90;;
64132;SDS011;53116;52.020;4.446;2022-08-19T14:32:07;4.90;;;2.10;;
64132;SDS011;53116;52.020;4.446;2022-08-19T14:34:32;4.90;;;2.15;;
64132;SDS011;53116;52.020;4.446;2022-08-19T14:36:58;3.28;;;2.20;;
64132;SDS011;53116;52.020;4.446;2022-08-19T14:39:24;3.40;;;2.00;;
64132;SDS011;53116;52.020;4.446;2022-08-19T14:41:49;4.57;;;2.15;;
64132;SDS011;53116;52.020;4.446;2022-08-19T14:44:15;4.25;;;2.33;;
64132;SDS011;53116;52.020;4.446;2022-08-19T14:46:40;3.73;;;1.93;;
64132;SDS011;53116;52.020;4.446;2022-08-19T14:49:06;2.80;;;2.00;;
64132;SDS011;53116;52.020;4.446;2022-08-19T14:51:32;4.70;;;2.15;;